Hvidovre, Denmark
Current Conditions -  °F | °C
As of 11:50 PM on Wednesday 22 Oct 2014 (Local Time) from EKCH Reporting Station
Broken Clouds Broken Clouds  
Wind Chill: 52°   Ceiling: 900
Heat Index: 52°   Visibility: 6mi
Dew Point: 50°   Wind: 12mph
Humidity: 94%   Direction: 90°E
Pressure: 30"   Gusts: NA
Location:  55.66°N, 12.47°E
Report Text: EKCH 222150Z 09010KT 9999 BKN009 11/10 Q1016 NOSIG
Loading
Personal Weather Stations






























Interactive Weather Map New forecast layout! Learn more

10-Day Weather Forecast

Advertisements
Track Severe Weather on mobile